Arcoverde, Brazil
Current Conditions -  °F | °C
As of 3:00 PM on Friday 19 Dec 2014 (Local Time) from SBKG Reporting Station
Broken Clouds Broken Clouds  
Wind Chill: 82°   Ceiling: 3000
Heat Index: 85°   Visibility: 6mi
Dew Point: 66°   Wind: 17mph
Humidity: 58%   Direction: 90°E
Pressure: 29.91"   Gusts: NA
Location:  8.42°S, 37.05°W
Report Text: SBKG 191800Z 09015KT 9999 BKN030 BKN090 28/19 Q1013
Loading
Personal Weather Stations






























Interactive Weather Map New forecast layout! Learn more

10-Day Weather Forecast

Advertisements
Track Severe Weather on mobile